Time;durP1;ratioP1;P1;durP2;ratioP2;P2;SDS_P1;SDS_P2;PMS_P1;PMS_P2;Temp;Humidity;BMP_temperature;BMP_pressure;BME280_temperature;BME280_humidity;BME280_pressure;Samples;Min_cycle;Max_cycle;Signal;HPM_P1;HPM_P2
2021/11/12 00:14:34;;;;;;;48.55;34.42;;;;;;;8.05;65.62;101525.50;4985998;28;20105;-80
2021/11/12 00:17:00;;;;;;;44.10;28.70;;;;;;;8.19;65.01;101521.56;4985527;28;20058;-80
2021/11/12 00:19:26;;;;;;;39.80;28.95;;;;;;;7.99;64.06;101500.09;4984826;28;20073;-79
2021/11/12 00:21:54;;;;;;;49.00;30.63;;;;;;;8.21;63.97;101521.59;4984427;28;20038;-81
2021/11/12 00:24:19;;;;;;;50.92;32.08;;;;;;;7.81;65.26;101520.47;4985529;28;20076;-80
2021/11/12 00:26:46;;;;;;;41.53;29.35;;;;;;;7.71;65.05;101508.00;4987219;28;20405;-79
2021/11/12 00:29:14;;;;;;;44.08;34.97;;;;;;;7.68;65.13;101494.81;4986273;28;20030;-81
2021/11/12 00:31:49;;;;;;;55.90;33.58;;;;;;;7.69;65.60;101507.06;4986732;28;20030;-82
2021/11/12 00:36:57;;;;;;;59.00;36.17;;;;;;;7.75;65.98;101502.91;4968967;28;20061;-82
2021/11/12 00:39:37;;;;;;;47.75;32.92;;;;;;;8.06;64.95;101495.06;4986333;28;20053;-81
2021/11/12 00:43:04;;;;;;;49.90;35.30;;;;;;;7.91;64.84;101453.69;4968008;28;20042;-81
2021/11/12 00:45:03;;;;;;;46.17;33.30;;;;;;;7.91;64.90;101459.78;4981037;28;20077;-81
2021/11/12 00:50:11;;;;;;;54.08;33.03;;;;;;;7.50;65.60;101420.34;4986255;28;20054;-80
2021/11/12 00:55:24;;;;;;;46.20;33.65;;;;;;;7.88;64.65;101449.25;4999472;28;20643;-80
2021/11/12 00:57:51;;;;;;;44.20;32.22;;;;;;;7.42;65.83;101447.94;5004693;28;20052;-81
2021/11/12 01:00:20;;;;;;;42.28;34.70;;;;;;;7.82;65.13;101476.13;5004422;28;20046;-81
2021/11/12 01:02:49;;;;;;;45.22;30.83;;;;;;;7.72;64.97;101452.28;5004636;28;20073;-80
2021/11/12 01:05:16;;;;;;;46.65;30.77;;;;;;;7.86;64.74;101466.63;5002185;28;20084;-81
2021/11/12 01:07:43;;;;;;;50.35;31.65;;;;;;;7.66;65.29;101473.03;5002921;28;20073;-82
2021/11/12 01:10:11;;;;;;;41.85;31.15;;;;;;;7.36;66.15;101459.09;5003140;28;20038;-81
2021/11/12 01:12:40;;;;;;;44.30;33.38;;;;;;;7.78;64.65;101445.50;5004854;28;20092;-80
2021/11/12 01:15:10;;;;;;;41.67;32.40;;;;;;;8.07;64.32;101479.38;4987397;28;20029;-81
2021/11/12 01:17:36;;;;;;;42.70;31.10;;;;;;;8.13;64.13;101478.69;5006761;28;20034;-82
2021/11/12 01:20:03;;;;;;;34.63;27.00;;;;;;;8.22;64.30;101458.91;5006204;28;20037;-80
2021/11/12 01:22:29;;;;;;;39.80;31.52;;;;;;;8.20;64.27;101471.03;5006551;28;20588;-81
2021/11/12 01:24:54;;;;;;;41.97;30.90;;;;;;;8.09;64.58;101469.88;5005987;28;20135;-79
2021/11/12 01:27:20;;;;;;;38.47;30.80;;;;;;;7.92;64.37;101458.97;5008476;28;20055;-80
2021/11/12 01:29:46;;;;;;;42.55;30.20;;;;;;;7.45;65.46;101423.66;5007766;28;20058;-79
2021/11/12 01:32:24;;;;;;;32.35;27.00;;;;;;;7.93;64.87;101459.84;5005997;28;20082;-77
2021/11/12 01:34:53;;;;;;;43.20;29.50;;;;;;;8.03;64.64;101465.38;5007551;28;20046;-78
2021/11/12 01:37:21;;;;;;;35.80;27.50;;;;;;;7.98;64.60;101463.44;5007041;28;20034;-78
2021/11/12 01:39:54;;;;;;;37.00;26.27;;;;;;;8.00;64.38;101436.50;5007260;28;20045;-80
2021/11/12 01:42:24;;;;;;;32.40;22.23;;;;;;;7.31;67.64;101465.03;5007314;28;20352;-80
2021/11/12 01:44:59;;;;;;;27.90;24.00;;;;;;;6.71;69.85;101439.66;5005399;28;20117;-79
2021/11/12 01:47:41;;;;;;;36.55;21.30;;;;;;;6.52;71.53;101462.53;5006056;28;20052;-80
2021/11/12 01:50:15;;;;;;;28.50;19.92;;;;;;;5.97;72.64;101418.06;5007236;28;20208;-79
2021/11/12 01:52:46;;;;;;;45.60;22.83;;;;;;;5.82;73.12;101428.78;5007097;28;20037;-80
2021/11/12 01:55:27;;;;;;;28.58;23.70;;;;;;;6.26;72.06;101456.44;5007178;28;20041;-79
2021/11/12 01:58:51;;;;;;;32.75;23.98;;;;;;;6.30;72.25;101453.09;5006715;28;20038;-81
2021/11/12 02:00:39;;;;;;;35.22;26.30;;;;;;;6.52;71.11;101440.78;4995650;28;20038;-80
2021/11/12 02:03:05;;;;;;;40.03;25.98;;;;;;;6.41;70.40;101385.66;5006609;28;20036;-79
2021/11/12 02:05:30;;;;;;;36.22;24.85;;;;;;;6.65;70.35;101448.19;5005117;28;20537;-79
2021/11/12 02:07:56;;;;;;;34.85;25.65;;;;;;;7.19;68.84;101436.81;5006276;28;20037;-79
2021/11/12 02:10:25;;;;;;;37.53;25.40;;;;;;;7.52;67.83;101455.22;5006620;28;20076;-81
2021/11/12 02:12:58;;;;;;;33.53;26.33;;;;;;;7.58;67.37;101454.50;5004202;28;20706;-81
2021/11/12 02:15:26;;;;;;;30.50;24.65;;;;;;;7.09;68.32;101435.63;5007037;28;20049;-79
2021/11/12 02:18:05;;;;;;;32.33;24.48;;;;;;;7.24;67.83;101424.78;5007305;28;20142;-81
2021/11/12 02:20:43;;;;;;;32.35;24.95;;;;;;;7.38;66.82;101426.09;5007099;28;20034;-80
2021/11/12 02:23:08;;;;;;;34.60;26.27;;;;;;;7.66;65.58;101453.00;5006240;28;20068;-80
2021/11/12 02:25:39;;;;;;;35.70;26.20;;;;;;;7.27;66.54;101424.88;5005960;28;20517;-79
2021/11/12 02:28:10;;;;;;;41.13;28.88;;;;;;;7.44;66.74;101448.88;5005141;28;20466;-77
2021/11/12 02:30:37;;;;;;;35.75;25.02;;;;;;;7.45;67.29;101455.00;5006349;28;20038;-79
2021/11/12 02:33:06;;;;;;;36.03;27.90;;;;;;;7.52;66.91;101457.81;4993305;28;20124;-80
2021/11/12 02:35:35;;;;;;;42.30;30.20;;;;;;;7.40;66.48;101421.78;4988544;28;20367;-81
2021/11/12 02:38:03;;;;;;;41.03;28.48;;;;;;;7.65;66.39;101459.06;5006449;28;20061;-79
2021/11/12 02:40:29;;;;;;;33.38;29.25;;;;;;;7.80;65.92;101456.88;4987790;28;20043;-79
2021/11/12 02:42:55;;;;;;;39.50;30.63;;;;;;;8.01;65.13;101454.00;5004724;28;20052;-79
2021/11/12 02:45:22;;;;;;;46.53;30.95;;;;;;;7.42;66.08;101436.59;5005901;28;20405;-79
2021/11/12 02:47:47;;;;;;;36.38;29.55;;;;;;;7.38;66.07;101428.69;5004074;28;20045;-78
2021/11/12 02:50:17;;;;;;;41.70;30.83;;;;;;;7.17;67.35;101446.34;5006531;28;20030;-79
2021/11/12 02:52:43;;;;;;;32.42;28.88;;;;;;;7.52;66.25;101431.72;5005657;28;20037;-77
2021/11/12 02:55:09;;;;;;;42.53;30.65;;;;;;;7.53;65.91;101441.31;5005444;28;20176;-77
2021/11/12 02:57:36;;;;;;;46.95;31.33;;;;;;;7.54;65.47;101422.19;5004633;28;20120;-79
2021/11/12 03:00:08;;;;;;;39.67;32.35;;;;;;;7.44;65.99;101425.38;5004248;28;20041;-79
2021/11/12 03:02:34;;;;;;;35.05;30.33;;;;;;;7.51;66.29;101442.97;5005846;28;20049;-80
2021/11/12 03:05:00;;;;;;;50.63;31.55;;;;;;;7.46;66.18;101441.97;5003882;28;20040;-78
2021/11/12 03:07:27;;;;;;;35.42;30.10;;;;;;;7.09;67.08;101419.97;5005079;28;20040;-80
2021/11/12 03:09:54;;;;;;;46.05;31.52;;;;;;;7.46;65.61;101423.69;5004461;28;20032;-79
2021/11/12 03:12:21;;;;;;;42.83;34.53;;;;;;;7.74;65.62;101438.41;5002741;28;20072;-77
2021/11/12 03:14:48;;;;;;;47.20;29.55;;;;;;;7.60;65.27;101427.56;5005462;28;20040;-77
2021/11/12 03:17:15;;;;;;;36.22;30.10;;;;;;;7.32;65.74;101399.78;5005304;28;20505;-76
2021/11/12 03:19:40;;;;;;;37.40;27.50;;;;;;;7.58;65.20;101413.59;5006281;28;20057;-78
2021/11/12 03:22:10;;;;;;;36.25;29.52;;;;;;;7.56;65.37;101430.97;5004793;28;20088;-78
2021/11/12 03:25:01;;;;;;;42.08;31.40;;;;;;;7.22;65.69;101399.50;5004193;28;20120;-79
2021/11/12 03:30:27;;;;;;;39.90;31.38;;;;;;;7.07;65.20;101368.56;5004042;28;20029;-79
2021/11/12 03:49:53;;;;;;;39.42;31.67;;;;;;;7.58;64.33;101412.69;5004180;28;20137;-81
2021/11/12 04:20:19;;;;;;;32.30;27.33;;;;;;;7.40;64.03;101389.59;4989182;28;20102;-80
2021/11/12 05:09:34;;;;;;;41.92;29.98;;;;;;;7.64;64.10;101398.94;5006344;28;20402;-78
2021/11/12 05:50:19;;;;;;;43.67;26.75;;;;;;;8.54;63.91;101423.97;5002962;28;20154;-80
2021/11/12 05:55:28;;;;;;;32.95;27.13;;;;;;;8.04;65.03;101422.69;4998857;28;20045;-79
2021/11/12 05:57:56;;;;;;;36.45;27.15;;;;;;;8.39;64.10;101409.66;5003506;28;20033;-79
2021/11/12 06:00:21;;;;;;;47.55;26.88;;;;;;;8.56;63.49;101427.53;5007302;28;20494;-79
2021/11/12 06:02:47;;;;;;;39.90;30.95;;;;;;;8.16;64.07;101401.22;5006491;28;20069;-79
2021/11/12 06:05:16;;;;;;;47.72;33.95;;;;;;;7.89;65.69;101403.09;5004453;28;20125;-79
2021/11/12 06:07:42;;;;;;;66.05;42.60;;;;;;;8.29;64.75;101405.03;5004331;28;20053;-78
2021/11/12 06:10:09;;;;;;;113.75;76.72;;;;;;;8.75;63.64;101424.50;5004496;28;20485;-79
2021/11/12 06:12:35;;;;;;;85.97;62.25;;;;;;;8.90;63.11;101415.22;5008754;28;20049;-80
2021/11/12 06:15:00;;;;;;;67.70;49.55;;;;;;;8.68;63.16;101419.09;5009050;28;20040;-79
2021/11/12 06:17:26;;;;;;;73.03;51.33;;;;;;;8.29;64.57;101435.50;5008322;28;20575;-78
2021/11/12 06:19:52;;;;;;;93.88;60.72;;;;;;;8.31;64.65;101410.28;5007424;28;20349;-79
2021/11/12 06:22:18;;;;;;;50.10;39.25;;;;;;;8.22;65.20;101410.97;4996768;28;21080;-79
2021/11/12 06:24:43;;;;;;;44.10;32.03;;;;;;;8.55;65.15;101433.63;5006946;28;20044;-80
2021/11/12 06:27:08;;;;;;;46.53;28.95;;;;;;;8.53;65.33;101427.47;5008452;28;20594;-80
2021/11/12 06:29:35;;;;;;;39.10;28.48;;;;;;;8.79;64.57;101418.50;5007538;28;20475;-80
2021/11/12 06:32:01;;;;;;;45.95;32.00;;;;;;;8.37;66.32;101413.06;5006069;28;20038;-79
2021/11/12 06:34:29;;;;;;;84.15;56.22;;;;;;;8.82;65.13;101431.63;5004641;28;20033;-80
2021/11/12 06:36:55;;;;;;;82.50;59.63;;;;;;;8.59;65.07;101412.81;5005088;28;20091;-79
2021/11/12 06:39:20;;;;;;;40.65;32.95;;;;;;;8.04;66.97;101413.97;5005531;28;20033;-80
2021/11/12 06:52:29;;;;;;;44.45;26.50;;;;;;;9.43;63.14;101432.13;5003017;28;20048;-71
2021/11/12 06:54:56;;;;;;;41.88;24.88;;;;;;;9.52;62.35;101427.06;5004183;28;20674;-72
2021/11/12 06:57:22;;;;;;;32.35;26.10;;;;;;;9.67;62.20;101421.28;5003447;28;20030;-72
2021/11/12 06:59:49;;;;;;;29.30;21.83;;;;;;;9.98;61.73;101436.72;5004777;28;20037;-71
2021/11/12 07:02:18;;;;;;;30.55;22.35;;;;;;;9.69;61.11;101416.97;5004735;28;20097;-71
2021/11/12 07:04:44;;;;;;;27.48;22.52;;;;;;;9.60;61.92;101411.53;5002278;28;20046;-71
2021/11/12 07:07:09;;;;;;;31.48;23.33;;;;;;;9.91;61.00;101433.97;5003972;28;20033;-71
2021/11/12 07:09:37;;;;;;;41.95;26.02;;;;;;;9.65;61.52;101416.88;5003250;28;20076;-71
2021/11/12 07:12:03;;;;;;;31.05;24.08;;;;;;;9.84;61.30;101445.19;5004276;28;20563;-72
2021/11/12 07:14:29;;;;;;;33.63;22.45;;;;;;;10.07;61.08;101415.91;5004439;28;20557;-71
2021/11/12 07:16:54;;;;;;;32.53;25.73;;;;;;;10.20;60.17;101443.25;5002331;28;20041;-71
2021/11/12 07:19:20;;;;;;;44.17;32.92;;;;;;;9.65;63.27;101440.44;5003827;28;20046;-72
2021/11/12 07:21:46;;;;;;;47.00;33.90;;;;;;;8.45;67.66;101409.84;5004727;28;20061;-71
2021/11/12 07:24:11;;;;;;;41.53;34.55;;;;;;;8.83;67.00;101416.84;5005227;28;20034;-71
2021/11/12 07:26:37;;;;;;;58.15;34.80;;;;;;;8.79;66.85;101428.09;5005121;28;20053;-71
2021/11/12 07:29:04;;;;;;;54.45;33.55;;;;;;;9.11;66.10;101435.78;5005630;28;21010;-71
2021/11/12 07:31:29;;;;;;;45.92;33.40;;;;;;;9.36;65.55;101426.72;4995837;28;20061;-71
2021/11/12 07:33:58;;;;;;;59.08;31.95;;;;;;;8.66;67.74;101433.03;5004493;28;20076;-71
2021/11/12 07:36:34;;;;;;;42.55;31.02;;;;;;;9.04;66.33;101427.81;5002873;28;20053;-72
2021/11/12 07:39:02;;;;;;;48.90;31.88;;;;;;;8.89;67.13;101424.81;5005256;28;20088;-74
2021/11/12 07:41:53;;;;;;;45.40;33.63;;;;;;;8.64;67.79;101411.19;5004167;28;20048;-73
2021/11/12 07:47:16;;;;;;;45.33;34.42;;;;;;;8.89;67.17;101424.81;4964806;28;20061;-72
2021/11/12 07:49:48;;;;;;;54.58;32.65;;;;;;;9.18;66.63;101429.84;5004498;28;20049;-72
2021/11/12 07:52:15;;;;;;;53.95;32.35;;;;;;;9.33;65.18;101403.09;5004708;28;20485;-71
2021/11/12 07:54:41;;;;;;;69.50;34.72;;;;;;;9.82;63.82;101425.94;4994550;28;20048;-71
2021/11/12 07:57:10;;;;;;;38.78;33.00;;;;;;;9.33;64.69;101396.13;5000791;28;20030;-72
2021/11/12 07:59:38;;;;;;;123.93;40.53;;;;;;;9.98;63.51;101397.41;5003276;28;20057;-72
2021/11/12 08:02:04;;;;;;;54.17;33.67;;;;;;;9.87;63.07;101419.03;5004534;28;20486;-72
2021/11/12 08:04:30;;;;;;;44.08;31.92;;;;;;;10.35;61.72;101418.19;5002947;28;20114;-71
2021/11/12 08:06:58;;;;;;;47.53;31.45;;;;;;;10.83;60.45;101413.69;5003119;28;20473;-72
2021/11/12 08:09:27;;;;;;;43.47;33.42;;;;;;;11.07;59.07;101396.53;4986776;28;20722;-71
2021/11/12 08:11:57;;;;;;;47.15;34.45;;;;;;;10.72;60.27;101392.56;4987200;28;20044;-72
2021/11/12 08:14:35;;;;;;;38.00;30.85;;;;;;;10.53;62.15;101419.34;5004824;28;20034;-71
2021/11/12 08:17:27;;;;;;;64.70;30.83;;;;;;;11.07;59.99;101425.44;5004348;28;20056;-68
2021/11/12 08:22:41;;;;;;;36.00;26.55;;;;;;;11.29;58.79;101377.59;5005445;28;20366;-78
2021/11/12 08:35:31;;;;;;;58.28;36.65;;;;;;;10.66;60.83;101416.06;5007352;28;20065;-78
2021/11/12 08:43:19;;;;;;;40.05;32.80;;;;;;;10.85;61.27;101414.63;5009482;28;20037;-81
2021/11/12 08:46:13;;;;;;;52.38;33.17;;;;;;;10.37;61.53;101393.72;5006583;28;20457;-79
2021/11/12 08:48:41;;;;;;;46.67;33.08;;;;;;;10.07;62.91;101368.72;5006859;28;20046;-77
2021/11/12 08:51:12;;;;;;;48.17;31.92;;;;;;;10.43;60.76;101396.47;5007788;28;20038;-81
2021/11/12 08:53:39;;;;;;;42.35;32.20;;;;;;;10.67;59.86;101393.31;5008152;28;20067;-78
2021/11/12 08:56:11;;;;;;;43.22;34.90;;;;;;;11.23;59.19;101414.28;5000961;28;20038;-79
2021/11/12 08:58:37;;;;;;;53.53;31.70;;;;;;;10.91;59.62;101388.47;5018063;28;20030;-79
2021/11/12 09:01:02;;;;;;;45.97;32.35;;;;;;;11.22;59.57;101399.38;4996899;28;20467;-78
2021/11/12 09:03:28;;;;;;;54.53;34.80;;;;;;;10.65;60.88;101413.41;5007260;28;20042;-77
2021/11/12 09:05:54;;;;;;;37.42;29.70;;;;;;;10.76;61.61;101407.47;5006100;28;20858;-81
2021/11/12 09:08:20;;;;;;;39.92;31.75;;;;;;;11.02;59.59;101414.84;4990654;28;20057;-79
2021/11/12 09:10:46;;;;;;;32.80;24.05;;;;;;;11.33;57.69;101389.00;5009001;28;20658;-81
2021/11/12 09:13:18;;;;;;;34.97;26.30;;;;;;;12.00;56.69;101402.06;4990403;28;20033;-79
2021/11/12 09:15:50;;;;;;;33.67;26.23;;;;;;;11.61;56.47;101399.00;5009600;28;20045;-79
2021/11/12 09:18:18;;;;;;;29.50;25.90;;;;;;;11.20;58.12;101388.84;5007743;28;20053;-78
2021/11/12 09:20:45;;;;;;;30.95;25.05;;;;;;;11.35;57.67;101408.28;5010066;28;20528;-79
2021/11/12 09:23:10;;;;;;;48.50;23.00;;;;;;;11.36;56.90;101397.81;5007594;28;20544;-70
2021/11/12 09:25:36;;;;;;;19.35;13.38;;;;;;;11.45;54.21;101377.75;5006928;28;20034;-71
2021/11/12 09:28:01;;;;;;;29.95;18.77;;;;;;;12.08;55.16;101397.78;5008767;28;20087;-71
2021/11/12 09:30:37;;;;;;;22.73;18.10;;;;;;;11.87;54.48;101394.88;5007317;28;20048;-79
2021/11/12 09:33:05;;;;;;;21.10;16.55;;;;;;;12.43;52.67;101373.50;4989979;28;20457;-79
2021/11/12 09:35:31;;;;;;;26.40;19.23;;;;;;;11.74;55.07;101367.59;5008019;28;20048;-78
2021/11/12 09:37:57;;;;;;;29.17;23.00;;;;;;;11.59;56.33;101365.69;5006342;28;20054;-80
2021/11/12 09:40:23;;;;;;;34.15;26.05;;;;;;;12.40;54.34;101376.13;5007905;28;20046;-79
2021/11/12 09:42:57;;;;;;;28.27;22.05;;;;;;;12.19;54.31;101361.91;5007062;28;20084;-79
2021/11/12 09:45:23;;;;;;;41.45;30.65;;;;;;;12.02;54.83;101374.03;5007973;28;20034;-77
2021/11/12 09:47:52;;;;;;;41.40;31.00;;;;;;;11.86;55.58;101375.59;5005812;28;20771;-78
2021/11/12 09:50:25;;;;;;;50.65;33.88;;;;;;;12.34;55.61;101355.00;5007858;28;20033;-77
2021/11/12 09:52:51;;;;;;;49.78;38.40;;;;;;;12.28;55.43;101365.50;5004579;28;20037;-78
2021/11/12 09:55:17;;;;;;;46.85;38.03;;;;;;;11.91;56.18;101367.78;4991181;28;20038;-77
2021/11/12 09:57:44;;;;;;;42.78;38.10;;;;;;;11.95;56.58;101354.69;5007215;28;20048;-77
2021/11/12 10:00:12;;;;;;;46.80;41.58;;;;;;;11.72;57.76;101357.03;5008021;28;20048;-74
2021/11/12 10:02:44;;;;;;;63.00;42.80;;;;;;;12.66;55.94;101374.53;5006485;28;20037;-73
2021/11/12 10:05:16;;;;;;;56.10;43.23;;;;;;;12.54;55.30;101373.59;5004961;28;20030;-78
2021/11/12 10:07:42;;;;;;;59.90;41.92;;;;;;;12.68;54.29;101353.50;5006785;28;20763;-78
2021/11/12 10:10:10;;;;;;;49.88;39.20;;;;;;;13.22;54.17;101364.34;5007825;28;20471;-71
2021/11/12 10:12:41;;;;;;;55.05;41.15;;;;;;;13.40;52.68;101366.22;5008250;28;20493;-71
2021/11/12 10:15:15;;;;;;;55.35;38.10;;;;;;;12.28;54.70;101366.38;5007079;28;20539;-72
2021/11/12 10:17:45;;;;;;;41.83;35.25;;;;;;;13.34;53.62;101366.16;5007021;28;20165;-70
2021/11/12 10:20:18;;;;;;;40.58;34.05;;;;;;;13.26;53.38;101331.84;5004987;28;20034;-70
2021/11/12 10:22:46;;;;;;;49.63;37.93;;;;;;;13.28;53.38;101332.78;5006004;28;20040;-70
2021/11/12 10:25:13;;;;;;;46.08;37.53;;;;;;;12.66;54.44;101331.53;5005942;28;20037;-70
2021/11/12 10:27:45;;;;;;;49.17;39.15;;;;;;;12.48;54.49;101336.69;4994315;28;20393;-69
2021/11/12 10:30:14;;;;;;;45.53;38.15;;;;;;;13.59;52.71;101335.50;5022376;28;20025;-69
2021/11/12 10:32:42;;;;;;;51.78;36.97;;;;;;;13.84;51.93;101307.41;5006015;28;20077;-68
2021/11/12 10:35:18;;;;;;;42.78;32.42;;;;;;;13.73;51.35;101326.72;4986566;28;20029;-70
2021/11/12 10:37:44;;;;;;;39.03;34.67;;;;;;;13.51;52.19;101331.09;4989597;28;20049;-69
2021/11/12 10:40:17;;;;;;;44.17;31.75;;;;;;;14.22;51.13;101319.75;5006644;28;20033;-70
2021/11/12 10:42:50;;;;;;;43.58;31.30;;;;;;;14.20;50.85;101300.38;5006980;28;20038;-70
2021/11/12 10:45:21;;;;;;;42.72;34.00;;;;;;;15.10;49.11;101299.28;5005950;28;20046;-70
2021/11/12 10:47:53;;;;;;;44.15;34.00;;;;;;;15.38;49.49;101310.59;5004266;28;20042;-75
2021/11/12 10:50:21;;;;;;;50.80;36.13;;;;;;;15.22;47.50;101287.78;5005050;28;20117;-75
2021/11/12 10:52:49;;;;;;;41.63;31.35;;;;;;;15.20;48.25;101319.53;5004902;28;20471;-74
2021/11/12 10:55:23;;;;;;;42.80;35.63;;;;;;;14.15;50.78;101309.16;4986008;28;20038;-79
2021/11/12 10:57:55;;;;;;;53.80;35.35;;;;;;;13.93;51.80;101315.34;5005865;28;20388;-79
2021/11/12 11:00:37;;;;;;;33.17;26.95;;;;;;;15.34;49.54;101308.91;5006514;28;20042;-80
2021/11/12 11:03:15;;;;;;;36.50;28.63;;;;;;;15.93;47.61;101289.13;5002532;28;20073;-80
2021/11/12 11:05:55;;;;;;;37.40;23.80;;;;;;;15.88;46.32;101311.22;5005959;28;20034;-80
2021/11/12 11:08:28;;;;;;;25.92;22.83;;;;;;;13.68;50.19;101298.59;5005666;28;20679;-79
2021/11/12 11:10:59;;;;;;;30.80;23.20;;;;;;;14.76;47.71;101304.72;5005045;28;20037;-79
2021/11/12 11:13:32;;;;;;;23.83;19.42;;;;;;;13.52;50.42;101311.75;5005778;28;20092;-79
2021/11/12 11:16:01;;;;;;;27.02;22.63;;;;;;;13.13;51.25;101295.78;5006924;28;20049;-78
2021/11/12 11:18:32;;;;;;;34.00;20.73;;;;;;;14.78;49.43;101305.59;5005858;28;20018;-81
2021/11/12 11:23:51;;;;;;;30.33;21.90;;;;;;;15.32;46.92;101305.38;5006252;28;20049;-78
2021/11/12 11:26:22;;;;;;;23.30;18.85;;;;;;;15.49;45.81;101279.69;5006004;28;20092;-77
2021/11/12 11:28:50;;;;;;;25.75;19.42;;;;;;;14.97;47.73;101275.56;5005744;28;20034;-80
2021/11/12 11:31:17;;;;;;;30.75;19.88;;;;;;;13.70;49.93;101292.44;5006302;28;20052;-80
2021/11/12 11:33:45;;;;;;;27.65;18.63;;;;;;;13.98;48.96;101274.00;5005610;28;20123;-80
2021/11/12 11:36:12;;;;;;;45.13;20.77;;;;;;;14.66;48.25;101284.50;4998015;28;20203;-79
2021/11/12 11:38:41;;;;;;;25.92;20.30;;;;;;;14.63;47.99;101288.00;5005466;28;20029;-80
2021/11/12 11:41:09;;;;;;;27.05;20.92;;;;;;;14.99;46.98;101279.09;5005471;28;20075;-80
2021/11/12 11:43:35;;;;;;;28.52;20.17;;;;;;;15.64;47.25;101291.97;5002305;28;20068;-78
2021/11/12 11:46:07;;;;;;;31.20;22.75;;;;;;;15.72;46.88;101257.53;5006551;28;20063;-80
2021/11/12 11:48:39;;;;;;;28.00;23.33;;;;;;;16.11;46.35;101284.53;4997609;28;20123;-80
2021/11/12 11:51:07;;;;;;;32.97;22.67;;;;;;;16.36;45.90;101288.72;5005874;28;20379;-80
2021/11/12 11:53:41;;;;;;;28.95;21.88;;;;;;;16.53;45.94;101285.94;5005249;28;20136;-80
2021/11/12 11:56:27;;;;;;;37.80;24.83;;;;;;;16.10;46.27;101285.44;5004132;28;20041;-80
2021/11/12 11:58:58;;;;;;;26.88;22.42;;;;;;;15.64;47.35;101281.38;5001912;28;20574;-80
2021/11/12 12:01:24;;;;;;;26.80;23.95;;;;;;;14.65;49.58;101253.66;4987093;28;20077;-79
2021/11/12 12:03:52;;;;;;;35.50;25.52;;;;;;;15.34;48.89;101262.16;5001861;28;20044;-78
2021/11/12 12:06:18;;;;;;;28.75;25.05;;;;;;;14.46;50.47;101271.28;4989029;28;20077;-79
2021/11/12 12:09:13;;;;;;;32.97;25.63;;;;;;;14.24;51.14;101244.94;5004676;28;20045;-79
2021/11/12 12:11:48;;;;;;;29.00;23.05;;;;;;;15.41;49.09;101271.81;5004269;28;20065;-79
2021/11/12 12:14:22;;;;;;;37.58;28.15;;;;;;;15.98;46.97;101270.56;5004000;28;20040;-80
2021/11/12 12:17:32;;;;;;;30.63;26.02;;;;;;;14.63;50.21;101272.16;5005176;28;20112;-80
2021/11/12 13:26:05;;;;;;;29.42;19.30;;;;;;;14.42;50.32;101240.50;5006194;28;20564;-77
2021/11/12 13:28:43;;;;;;;26.95;21.20;;;;;;;13.85;51.31;101219.47;4993805;28;20137;-78
2021/11/12 13:31:12;;;;;;;26.25;19.50;;;;;;;14.47;49.91;101239.63;5007473;28;20103;-78
2021/11/12 13:33:52;;;;;;;23.55;18.15;;;;;;;14.45;49.51;101243.16;5005536;28;20042;-78
2021/11/12 13:36:32;;;;;;;28.15;19.10;;;;;;;14.51;50.06;101254.53;5007338;28;20037;-77
2021/11/12 13:38:57;;;;;;;23.33;19.65;;;;;;;14.39;49.50;101249.31;5005778;28;20454;-78
2021/11/12 13:41:26;;;;;;;35.15;21.90;;;;;;;15.11;49.17;101246.44;4988259;28;20034;-78
2021/11/12 13:44:02;;;;;;;27.58;18.13;;;;;;;15.17;48.50;101233.19;4987627;28;20038;-78
2021/11/12 13:46:40;;;;;;;26.38;18.08;;;;;;;14.07;50.23;101230.88;4999282;28;20046;-78
2021/11/12 13:49:07;;;;;;;19.98;17.05;;;;;;;13.61;51.32;101230.91;4997107;28;20057;-77
2021/11/12 13:51:32;;;;;;;47.35;19.35;;;;;;;14.30;50.58;101241.41;4988746;28;20116;-78
2021/11/12 13:54:03;;;;;;;20.40;16.45;;;;;;;14.99;49.09;101235.91;5007764;28;20037;-78
2021/11/12 13:56:34;;;;;;;20.40;17.20;;;;;;;15.50;47.76;101241.78;5006256;28;20046;-78
2021/11/12 13:59:11;;;;;;;21.92;16.80;;;;;;;14.59;49.19;101243.16;5003837;28;20038;-79
2021/11/12 14:01:39;;;;;;;23.85;17.25;;;;;;;15.09;48.30;101223.53;5003304;28;20034;-77
2021/11/12 14:04:24;;;;;;;19.20;13.18;;;;;;;15.38;47.32;101232.19;5004316;28;20278;-76
2021/11/12 14:06:50;;;;;;;21.40;13.68;;;;;;;15.52;46.48;101244.41;5005425;28;20537;-75
2021/11/12 14:09:33;;;;;;;25.60;15.52;;;;;;;15.76;46.11;101246.03;5006489;28;20068;-75
2021/11/12 14:12:12;;;;;;;20.95;15.73;;;;;;;15.53;46.58;101244.41;5006261;28;20719;-75
2021/11/12 14:14:40;;;;;;;18.95;13.55;;;;;;;15.74;46.46;101253.13;5007874;28;20162;-75
2021/11/12 14:17:31;;;;;;;19.80;13.82;;;;;;;15.65;46.42;101253.16;5007877;28;20037;-75
2021/11/12 14:23:00;;;;;;;28.27;15.43;;;;;;;15.57;46.50;101251.44;5006015;28;20502;-74
2021/11/12 14:25:33;;;;;;;25.65;16.15;;;;;;;15.40;46.65;101251.56;5581719;22;20053;-67
2021/11/12 14:28:17;;;;;;;25.20;15.35;;;;;;;15.42;46.74;101256.81;5021741;28;20049;-68
2021/11/12 14:31:14;;;;;;;19.60;15.00;;;;;;;15.49;47.01;101255.88;5023536;28;20099;-69
2021/11/12 14:38:54;;;;;;;25.05;16.77;;;;;;;15.22;46.84;101208.47;5012651;28;20080;-69
2021/11/12 14:41:32;;;;;;;21.50;16.35;;;;;;;15.45;47.21;101253.28;5006699;28;20537;-74
2021/11/12 14:52:00;;;;;;;33.30;17.40;;;;;;;15.31;47.40;101264.84;5007580;28;20129;-75
2021/11/12 14:54:35;;;;;;;19.65;16.02;;;;;;;15.03;47.61;101237.66;5017264;28;20330;-74
2021/11/12 14:57:05;;;;;;;24.60;16.25;;;;;;;15.08;47.82;101261.44;5004641;28;20037;-74
2021/11/12 14:59:33;;;;;;;34.00;18.67;;;;;;;15.01;47.99;101265.88;5021690;28;20037;-76
2021/11/12 15:02:01;;;;;;;28.83;18.27;;;;;;;14.80;47.94;101237.78;5030550;28;20502;-75
2021/11/12 15:04:27;;;;;;;29.05;18.33;;;;;;;14.94;47.97;101266.78;5016894;28;20038;-75
2021/11/12 15:06:53;;;;;;;27.63;18.95;;;;;;;14.91;47.82;101266.78;5009195;28;20033;-75
2021/11/12 15:09:24;;;;;;;27.48;17.10;;;;;;;14.79;47.72;101270.34;5013538;28;20449;-75
2021/11/12 15:11:51;;;;;;;22.33;16.17;;;;;;;14.76;47.78;101263.31;5009464;28;20065;-76
2021/11/12 15:14:26;;;;;;;28.55;16.27;;;;;;;14.60;47.73;101240.47;5023332;28;20120;-72
2021/11/12 15:16:52;;;;;;;22.30;14.38;;;;;;;14.69;48.18;101271.28;5023160;28;20052;-70
2021/11/12 15:19:19;;;;;;;24.65;16.75;;;;;;;14.41;48.50;101244.03;5021996;28;20037;-71
2021/11/12 15:22:15;;;;;;;23.10;15.32;;;;;;;14.49;48.56;101266.00;5021439;28;20037;-70
2021/11/12 15:30:24;;;;;;;28.02;16.92;;;;;;;14.25;49.54;101259.88;5022577;28;20034;-68
2021/11/12 15:32:31;;;;;;;27.02;16.95;;;;;;;14.39;49.34;101266.91;5011467;28;20057;-70
2021/11/12 15:35:03;;;;;;;31.17;22.45;;;;;;;14.02;50.73;101237.91;5022502;28;20026;-70
2021/11/12 15:40:08;;;;;;;54.50;26.92;;;;;;;13.77;51.11;101266.97;5023944;28;20034;-70
2021/11/12 15:45:07;;;;;;;55.63;33.38;;;;;;;13.18;53.31;101259.78;5021614;28;21425;-72
2021/11/12 15:47:34;;;;;;;;;;;;;;;12.92;53.75;101265.81;5025025;28;20542;-69
2021/11/12 16:01:24;;;;;;;53.60;36.80;;;;;;;13.12;53.73;101273.81;5013232;28;20029;-69
2021/11/12 16:04:44;;;;;;;45.60;36.08;;;;;;;13.14;53.52;101276.47;5018811;28;20386;-68
2021/11/12 16:14:21;;;;;;;46.10;34.60;;;;;;;13.36;53.68;101288.84;5024095;28;20087;-68
2021/11/12 16:26:56;;;;;;;51.20;40.60;;;;;;;13.08;54.02;101278.19;5021434;28;20511;-73
2021/11/12 16:31:53;;;;;;;75.75;56.03;;;;;;;13.22;53.52;101309.84;5020153;28;20037;-72
2021/11/12 16:34:24;;;;;;;71.72;54.85;;;;;;;13.04;53.73;101278.16;5008278;28;20044;-73
2021/11/12 16:37:11;;;;;;;70.72;51.35;;;;;;;13.04;54.05;101272.91;5022713;28;20068;-72
2021/11/12 16:39:45;;;;;;;78.72;54.58;;;;;;;13.18;53.92;101299.28;5006403;28;20565;-74
2021/11/12 16:44:50;;;;;;;78.32;55.25;;;;;;;13.02;54.12;101290.47;5019012;28;20042;-73